ED1ZAU
43.23.04N 005.52.75W
IN73BJ aprs.fi
zuletzt gehoert:
2022-08-15T21:32:19Z
zuerst gehoert:
2020-02-10T15:05:06Z

APRS Oviedo [IN73BJ], 2 Stunde(n), ED1ZAU [00:01:11, 0s].
ED1ZAU 43.23.04N 005.52.75WIN73BJ 0.419km 274°W21:32:19ZRD625 438.5000/430.9000 CC1
EB1JAJ 43.21.72N 005.51.82WIN73BI 2.561km 161°SSE21:32:04ZMMDVM MMDVM HS Dual Hat 438.0250/431.0250 CC1(3EB1JAJ-2)
LEHU 43.22.63N 005.49.57WIN73CJ 3.934km 101°E22:00:04ZHelipuerto del HUCA: LEAS 152100Z 20004KT 170V240 9999 SCT027 BKN043 20/16 Q1010 NOSIG=
EA1L 43.20.37N 005.51.13WIN73BI 5.212km 160°SSE22:00:09Zea1l@ure.es V=13.3V
Wind 076°/000kn, Böen bis 003kn, Temp 18.33c, Regen 0.0mm, letzte 24h 0.0mm, seit 0h 0.0mm, Baro 1008.4h, Hum: 85%(2EA1L-13)
LEMR 43.25.83N 005.49.60WIN73CK 6.454km 36°NE22:00:04ZAerodromo de la Morgal (123.500MHz): LEAS 152100Z 20004KT 170V240 9999 SCT027 BKN043 20/16 Q1010 NOSIG=
LEGM 43.26.15N 005.49.84WIN73CK 6.790km 31°NNE22:00:04ZHelipuerto de La Morgal (123.500MHz): LEAS 152100Z 20004KT 170V240 9999 SCT027 BKN043 20/16 Q1010 NOSIG=
EA1ABW 43.24.77N 005.47.77WIN73CJ 7.079km 63°ENE22:00:23ZMMDVM MMDVM HS Hat 439.8250/439.8250 CC1(3EA1ABW-2)
EA1HWX 43.19.28N 005.50.98WIN73BH 7.215km 164°SSE21:32:03ZDMO - UHF 439.7250/431.0000 CC11(3EA1HWX-2)
MMDVM DMO 222.3400/222.3400 CC1(2EA1HWX-10)
EA1IPU 43.26.21N 005.46.62WIN73CK 9.831km 53°NE22:01:03ZMMDVM MMDVM HS Hat 439.8000/439.8000 CC1(3EA1IPU-1)
ED1ZAY 43.29.47N 005.56.54WIN73AL 13.173km 335°NNW21:32:18ZRD625 438.3000/430.7000 CC1
EA1IMW 43.14.36N 005.46.93WIN73CF 17.695km 155°SSE21:32:00ZGRUPO RADIO GALENA (GRG) 430.4500/430.4500 CC1(3EA1IMW-1)
EA1AHA 43.32.72N 005.54.38WIN73BN 18.171km 352°N21:33:46ZWind 225°/003kn, Böen bis 004kn, Temp 20.56c, Regen 0.0mm, letzte 24h 0.0mm, seit 0h 0.0mm, Baro 1011.8h, Hum: 73%(3EA1AHA-13)
ED1ZAE 43.27.99N 005.40.54WIN73DL 18.470km 60°ENE21:42:23ZWIDE3-3 ESAS3-3 IN73DL WWW.EA1URG.ORG(3ED1ZAE-3)
ED1ZAS 43.27.52N 005.40.17WIN73DL 18.504km 63°ENE21:32:20ZRD985 438.2250/430.6250 CC1
EA1JBL 43.12.28N 005.47.42WIN73CE 21.010km 161°SSE22:00:19ZMMDVM DVMega 435.3000/435.3000 CC1
EB1DGC 43.12.60N 005.45.59WIN73CF 21.411km 154°SSE22:00:24ZMMDVM MMDVM HS Hat 433.4500/433.4500 CC1
EA1HWA 43.12.00N 005.47.40WIN73CE 21.533km 162°SSE21:31:24ZMMDVM MMDVM HS Hat 433.4500/433.4500 CC1
EA1FLQ 43.22.00N 005.36.35WIN73EI 21.754km 95°E22:00:18ZMMDVM DVMega 439.9750/439.9750 CC1
EB1TK 43.32.22N 005.42.32WIN73DM 21.831km 39°NE22:00:17ZWind 208°/002kn, Böen bis 004kn, Temp 20.00c, Regen 0.0mm, letzte 24h 0.0mm, seit 0h 0.0mm, Baro 1012.4h, Hum: 84%(3EB1TK-13)
EA4ACU 43.29.56N 005.38.92WIN73EL 21.864km 56°NE21:31:49ZMMDVM MMDVM HS Hat 432.7000/432.7000 CC1(3EA4ACU-1)
EA1FFA 43.31.53N 005.40.64WIN73DM 22.391km 45°NE21:31:40ZMMDVM MMDVM HS Hat 438.8000/438.8000 CC1(3EA1FFA-1)
EA1DZR 43.31.48N 005.40.00WIN73EM 22.934km 47°NE21:32:11ZMMDVM DVMega 431.1000/431.1000 CC1(3EA1DZR-1)
MMDVM MMDVM HS Hat 432.1000/432.1000 CC2(2EA1DZR-2)
MMDVM DV ADER 434.3500/434.3500 CC1(2EA1DZR-4)
EA1IEJ 43.31.81N 005.40.17WIN73DM 23.205km 45°NE22:00:29ZMMDVM DMO 222.3400/222.3400 CC1(3EA1IEJ-11)
MMDVM MMDVM HS Hat 438.8500/438.8500 CC6(2EA1IEJ-1)
LEEL 43.32.98N 005.41.71WIN73DN 23.421km 38°NE22:00:04ZHelipuerto de El Musel: LEAS 152100Z 20004KT 170V240 9999 SCT027 BKN043 20/16 Q1010 NOSIG=
EA1RCG 43.09.45N 005.49.78WIN73CD 25.388km 172°S22:00:57ZGRUPO RADIO GALENA (GRG) 430.4500/430.4500 CC1(3EA1RCG-3)
EB1GEM 43.30.00N 005.36.07WIN73EM 25.558km 59°ENE21:55:37ZWX3in1Plus2.0 U=13.3V,T=??.?C/??.?F(3EB1GEM-3)
EC1AIJ 43.19.77N 005.33.49WIN73FH 26.246km 103°ESE22:00:50ZMMDVM MMDVM HS Hat 432.9800/432.9800 CC1
EA1HJA 43.28.10N 005.30.45WIN73FL 31.064km 72°ENE21:50:34ZEA1HJA@URE.ES
IN73FL WX3IN1+ 2.0 - V=13.2V,TX TEMP=38.3C(2EA1HJA-2)
ED1ZAD 43.07.90N 005.38.52WIN73ED 33.722km 146°SE21:49:33ZED1ZAD-3 APRS Digi/Igate(3ED1ZAD-3)
EA1JAY 43.29.33N 005.26.78WIN73GL 36.468km 71°ENE22:00:08Z434.525MHz Nodo TETRA DMO(3EA1JAY-4)
EA1JAY(2EA1JAY-2)
EA1FHR 43.28.72N 005.26.41WIN73GL 36.582km 73°ENE22:00:59ZMMDVM MMDVM HS Hat 439.1500/439.1500 CC1
EA1HWD 43.28.96N 005.26.30WIN73GL 36.866km 72°ENE22:00:35ZMMDVM MMDVM HS Hat 434.2500/434.2500 CC1
EC1KV 43.34.01N 006.16.01WIN63UN 37.656km 303°WNW22:00:30ZALBUERNE(3EC1KV-1)
LETN 43.20.05N 006.22.69WIN63TI 41.124km 262°W22:00:04ZAerodromo de La Curiscada (Tineo): LEAS 152100Z 20004KT 170V240 9999 SCT027 BKN043 20/16 Q1010 NOSIG=

aprs.pl 5.0.011w DL3EL © 2006-2021 [4415020]